Terminal Aerodrome Forecast
Issued by NWS

Home | Current Version | Previous Version | Text Only | Print | Product List | Glossary On
Versions: 1 2 3 4 5 6 7 8 9 10 11 12 13
689
FTAK31 PAJN 261130
TAFAGY
TAF
PAGY 261130Z 2612/2712 VRB03KT P6SM OVC040
     FM261500 VRB03KT P6SM SCT060
     FM261800 21010KT P6SM VCSH SCT060
     FM262300 21015KT P6SM VCTS SCT030CB BKN050
     FM270300 21010KT P6SM VCSH BKN050
     FM270800 VRB04KT P6SM SCT050
      AMD LTD TO CLD VIS AND WIND=

USA.gov is the U.S. government's official web portal to all federal, state and local government web resources and services.